Time;durP1;ratioP1;P1;durP2;ratioP2;P2;SDS_P1;SDS_P2;PMS_P1;PMS_P2;Temp;Humidity;BMP_temperature;BMP_pressure;BME280_temperature;BME280_humidity;BME280_pressure;Samples;Min_cycle;Max_cycle;Signal;HPM_P1;HPM_P2
2021/09/17 00:01:12;;;;;;;6.70;1.50;;;;;;;26.08;39.62;100901.50;5153794;27;20115;-76
2021/09/17 00:03:38;;;;;;;8.63;2.50;;;;;;;25.81;40.19;100907.72;5153991;27;20054;-76
2021/09/17 00:06:03;;;;;;;8.52;1.88;;;;;;;25.71;40.58;100901.00;5154249;27;20062;-75
2021/09/17 00:08:29;;;;;;;5.45;1.63;;;;;;;25.95;40.16;100912.41;5154081;27;20491;-75
2021/09/17 00:10:55;;;;;;;5.70;1.63;;;;;;;26.08;39.77;100898.69;5154199;27;20392;-75
2021/09/17 00:13:21;;;;;;;5.05;1.98;;;;;;;25.97;40.17;100896.75;5154002;27;20083;-75
2021/09/17 00:15:46;;;;;;;7.57;2.30;;;;;;;26.14;40.03;100899.78;5154071;27;20099;-76
2021/09/17 00:18:12;;;;;;;4.38;1.52;;;;;;;26.23;39.73;100897.31;5154107;27;20477;-75
2021/09/17 00:20:38;;;;;;;7.95;2.08;;;;;;;26.24;39.75;100904.50;5153877;27;20055;-76
2021/09/17 00:23:04;;;;;;;9.55;2.13;;;;;;;26.22;40.05;100902.13;5153729;27;20442;-76
2021/09/17 00:25:29;;;;;;;8.57;2.72;;;;;;;26.29;39.90;100901.25;5153998;27;20106;-76
2021/09/17 00:27:55;;;;;;;8.90;2.65;;;;;;;26.19;40.27;100893.75;5153985;27;20097;-75
2021/09/17 00:30:23;;;;;;;5.35;2.00;;;;;;;26.24;40.02;100888.50;5154054;27;20070;-75
2021/09/17 00:32:48;;;;;;;8.07;2.40;;;;;;;26.23;40.01;100892.53;5135428;27;20083;-76
2021/09/17 00:35:14;;;;;;;7.43;2.42;;;;;;;26.24;40.04;100884.91;5155259;27;20434;-75
2021/09/17 00:37:40;;;;;;;7.13;2.50;;;;;;;26.25;40.36;100886.50;5158216;27;20049;-75
2021/09/17 00:40:06;;;;;;;6.85;2.00;;;;;;;26.24;40.64;100882.09;5158042;27;20019;-75
2021/09/17 00:42:35;;;;;;;9.38;2.17;;;;;;;26.33;39.98;100882.41;5158053;27;20058;-75
2021/09/17 00:45:02;;;;;;;11.30;1.90;;;;;;;26.39;39.77;100877.16;5158029;27;20027;-75
2021/09/17 00:47:28;;;;;;;9.25;2.03;;;;;;;26.39;40.34;100879.97;5157917;27;20130;-76
2021/09/17 00:49:53;;;;;;;9.57;1.95;;;;;;;26.43;40.19;100870.28;5157653;27;20520;-75
2021/09/17 00:52:19;;;;;;;18.02;3.20;;;;;;;26.47;40.10;100873.88;5157888;27;20019;-75
2021/09/17 00:54:45;;;;;;;5.65;2.65;;;;;;;26.44;40.10;100865.47;5139222;27;20031;-75
2021/09/17 00:57:12;;;;;;;7.75;2.75;;;;;;;26.43;40.13;100867.50;5157776;27;20022;-75
2021/09/17 00:59:38;;;;;;;6.80;2.17;;;;;;;26.52;39.73;100864.19;5157674;27;20027;-75
2021/09/17 01:02:04;;;;;;;8.20;2.17;;;;;;;26.45;39.88;100867.06;5157599;27;20086;-76
2021/09/17 01:04:30;;;;;;;9.38;2.42;;;;;;;26.39;40.24;100865.97;5157575;27;20075;-75
2021/09/17 01:06:56;;;;;;;4.50;1.63;;;;;;;26.38;39.85;100858.75;5157642;27;20022;-75
2021/09/17 01:09:22;;;;;;;6.65;1.58;;;;;;;26.43;39.98;100856.28;5157355;27;20023;-75
2021/09/17 01:11:48;;;;;;;5.75;1.48;;;;;;;26.44;39.69;100851.47;5173373;27;20022;-75
2021/09/17 01:14:14;;;;;;;4.95;1.75;;;;;;;26.38;40.03;100839.94;5157254;27;20023;-75
2021/09/17 01:16:40;;;;;;;7.43;1.95;;;;;;;26.38;39.71;100844.75;5157473;27;20027;-75
2021/09/17 01:19:05;;;;;;;8.30;2.22;;;;;;;26.42;39.65;100832.28;5157278;27;20033;-75
2021/09/17 01:21:31;;;;;;;4.50;1.92;;;;;;;26.34;39.89;100830.75;5157146;27;20129;-75
2021/09/17 01:23:57;;;;;;;4.88;1.40;;;;;;;26.46;39.59;100837.88;5157170;27;20026;-75
2021/09/17 01:26:22;;;;;;;6.80;1.70;;;;;;;26.46;39.52;100833.06;5157173;27;20027;-76
2021/09/17 01:28:48;;;;;;;3.53;1.38;;;;;;;26.40;39.37;100823.53;5138560;27;20019;-75
2021/09/17 01:31:14;;;;;;;5.78;1.70;;;;;;;26.47;39.10;100826.22;5157051;27;20030;-75
2021/09/17 01:33:40;;;;;;;5.82;1.70;;;;;;;26.43;39.39;100824.69;5156834;27;20050;-75
2021/09/17 01:36:09;;;;;;;8.30;1.83;;;;;;;26.49;39.18;100823.00;5157047;27;20416;-75
2021/09/17 01:38:38;;;;;;;4.53;1.50;;;;;;;26.54;39.10;100830.97;5156946;27;20019;-75
2021/09/17 01:41:03;;;;;;;4.25;1.77;;;;;;;26.52;39.24;100813.75;5156813;27;20389;-76
2021/09/17 01:43:29;;;;;;;7.28;1.85;;;;;;;26.57;38.86;100820.91;5138202;27;20031;-76
2021/09/17 01:45:55;;;;;;;6.75;1.63;;;;;;;26.42;39.23;100821.09;5156574;27;20022;-75
2021/09/17 01:48:21;;;;;;;8.25;1.58;;;;;;;26.47;38.77;100817.81;5138139;27;20019;-75
2021/09/17 01:50:47;;;;;;;7.00;1.85;;;;;;;26.50;38.93;100811.38;5156749;27;20110;-75
2021/09/17 01:53:13;;;;;;;4.38;1.73;;;;;;;26.38;39.10;100808.31;5156677;27;20507;-75
2021/09/17 01:55:39;;;;;;;8.35;1.83;;;;;;;26.24;39.45;100812.09;5156614;27;20023;-76
2021/09/17 01:58:07;;;;;;;7.93;1.60;;;;;;;26.35;39.21;100815.53;5156587;27;20054;-75
2021/09/17 02:00:32;;;;;;;6.40;1.92;;;;;;;26.31;39.31;100814.81;5156342;27;20026;-75
2021/09/17 02:02:58;;;;;;;5.65;1.05;;;;;;;26.35;39.10;100809.16;5156459;27;20026;-75
2021/09/17 02:05:24;;;;;;;7.43;2.35;;;;;;;26.35;39.01;100809.16;5156465;27;20532;-75
2021/09/17 02:07:50;;;;;;;5.95;1.83;;;;;;;26.44;38.98;100799.03;5156441;27;20390;-75
2021/09/17 02:10:16;;;;;;;6.22;1.83;;;;;;;26.50;38.72;100793.78;5138038;27;20520;-76
2021/09/17 02:12:42;;;;;;;5.28;1.63;;;;;;;26.59;38.54;100796.06;5156112;27;20023;-77
2021/09/17 02:15:09;;;;;;;5.13;1.85;;;;;;;26.51;38.89;100792.56;5156006;27;20041;-76
2021/09/17 02:17:35;;;;;;;7.00;1.80;;;;;;;26.59;38.42;100790.44;5156164;27;20027;-75
2021/09/17 02:20:03;;;;;;;6.93;2.25;;;;;;;26.48;38.71;100776.59;5172248;27;20459;-75
2021/09/17 02:22:29;;;;;;;4.47;1.73;;;;;;;26.42;38.82;100759.47;5155485;27;20073;-75
2021/09/17 02:24:55;;;;;;;3.75;2.10;;;;;;;26.35;39.01;100761.53;5156007;27;20023;-76
2021/09/17 02:27:21;;;;;;;6.68;1.65;;;;;;;26.42;38.87;100765.06;5137416;27;20026;-75
2021/09/17 02:29:47;;;;;;;7.07;2.10;;;;;;;26.40;38.87;100761.09;5137648;27;20027;-75
2021/09/17 02:32:13;;;;;;;12.65;2.00;;;;;;;26.46;38.66;100751.03;5137484;27;20030;-75
2021/09/17 02:34:39;;;;;;;4.70;1.75;;;;;;;26.33;38.80;100744.34;5155912;27;20393;-75
2021/09/17 02:37:05;;;;;;;8.77;1.92;;;;;;;26.34;39.07;100735.53;5155645;27;20029;-75
2021/09/17 02:39:31;;;;;;;11.10;1.88;;;;;;;26.39;38.74;100735.09;5155749;27;20126;-76
2021/09/17 02:41:57;;;;;;;5.78;1.83;;;;;;;26.46;38.65;100728.59;5155749;27;20027;-75
2021/09/17 02:44:22;;;;;;;4.53;1.48;;;;;;;26.49;38.76;100727.75;5155182;27;20045;-75
2021/09/17 02:46:48;;;;;;;13.55;1.77;;;;;;;26.28;39.12;100721.19;5155487;27;20050;-75
2021/09/17 02:49:14;;;;;;;6.68;1.98;;;;;;;26.34;39.24;100726.34;5155640;27;20030;-76
2021/09/17 02:51:40;;;;;;;4.85;1.67;;;;;;;26.29;39.22;100713.59;5155446;27;20087;-75
2021/09/17 02:54:05;;;;;;;7.13;1.90;;;;;;;26.40;39.41;100714.28;5155316;27;20026;-75
2021/09/17 02:56:31;;;;;;;5.93;1.70;;;;;;;26.13;40.11;100719.81;5155469;27;20109;-75
2021/09/17 02:58:57;;;;;;;7.72;2.30;;;;;;;26.02;40.20;100715.56;5135807;27;20374;-75
2021/09/17 03:01:23;;;;;;;5.70;2.22;;;;;;;26.10;40.17;100714.25;5155340;27;20026;-75
2021/09/17 03:03:48;;;;;;;6.63;1.83;;;;;;;26.10;40.13;100717.84;5154773;27;20031;-75
2021/09/17 03:06:14;;;;;;;7.05;2.03;;;;;;;26.17;39.93;100716.97;5155101;27;20052;-75
2021/09/17 03:08:39;;;;;;;7.35;2.17;;;;;;;26.28;39.86;100712.00;5155190;27;20022;-75
2021/09/17 03:11:05;;;;;;;8.13;1.88;;;;;;;26.45;39.23;100713.81;5155152;27;20026;-75
2021/09/17 03:13:31;;;;;;;10.25;2.80;;;;;;;26.53;39.44;100695.69;5155042;27;20106;-75
2021/09/17 03:15:57;;;;;;;4.53;1.50;;;;;;;26.29;39.91;100696.78;5155115;27;20418;-75
2021/09/17 03:18:23;;;;;;;5.63;2.70;;;;;;;26.47;39.68;100697.34;5154994;27;20023;-75
2021/09/17 03:20:50;;;;;;;9.27;2.33;;;;;;;26.33;40.23;100685.53;5154782;27;20392;-75
2021/09/17 03:23:15;;;;;;;5.00;1.58;;;;;;;26.53;39.52;100686.47;5154876;27;20521;-76
2021/09/17 03:25:41;;;;;;;5.18;2.08;;;;;;;26.43;40.18;100684.63;5136106;27;20022;-76
2021/09/17 03:28:07;;;;;;;5.32;1.50;;;;;;;26.61;39.75;100682.34;5154765;27;20027;-76
2021/09/17 03:30:33;;;;;;;7.65;2.08;;;;;;;26.57;39.94;100686.41;5154643;27;20079;-75
2021/09/17 03:32:59;;;;;;;6.53;1.65;;;;;;;26.35;40.69;100683.91;5154742;27;20103;-76
2021/09/17 03:35:25;;;;;;;2.97;1.50;;;;;;;26.24;41.15;100672.84;5396187;22;20078;-75
2021/09/17 03:37:51;;;;;;;7.07;2.17;;;;;;;26.29;41.35;100677.16;5072766;28;20028;-75
2021/09/17 03:40:16;;;;;;;8.35;2.22;;;;;;;26.45;40.55;100673.75;5071519;28;20016;-75
2021/09/17 03:42:42;;;;;;;9.25;2.33;;;;;;;26.44;40.91;100670.19;5072791;28;20032;-75
2021/09/17 03:45:08;;;;;;;9.02;2.30;;;;;;;26.39;41.21;100670.66;5072831;28;20111;-75
2021/09/17 03:47:34;;;;;;;7.15;2.10;;;;;;;26.33;41.53;100675.13;5072701;28;20459;-75
2021/09/17 03:50:00;;;;;;;11.02;2.60;;;;;;;26.45;41.10;100668.16;5072820;28;20020;-75
2021/09/17 03:52:25;;;;;;;7.47;2.10;;;;;;;26.53;41.01;100670.47;5072822;28;20036;-75
2021/09/17 03:54:51;;;;;;;8.77;2.10;;;;;;;26.42;41.33;100653.00;5072611;28;20394;-75
2021/09/17 03:57:17;;;;;;;7.47;2.95;;;;;;;26.34;41.97;100648.69;5072548;28;20028;-75
2021/09/17 03:59:43;;;;;;;11.73;2.63;;;;;;;26.39;41.64;100653.88;5072636;28;20133;-75
2021/09/17 04:02:09;;;;;;;11.23;2.47;;;;;;;26.35;42.08;100639.06;5072557;28;20454;-75
2021/09/17 04:04:34;;;;;;;10.40;2.67;;;;;;;26.57;41.62;100644.38;5072517;28;20105;-75
2021/09/17 04:07:00;;;;;;;8.10;2.55;;;;;;;26.47;41.71;100632.13;5072566;28;20390;-75
2021/09/17 04:09:26;;;;;;;8.20;1.95;;;;;;;26.59;41.77;100634.31;5072399;28;20036;-75
2021/09/17 04:11:51;;;;;;;12.30;2.78;;;;;;;26.55;41.61;100640.00;5072206;28;20481;-75
2021/09/17 04:14:18;;;;;;;9.45;2.20;;;;;;;26.62;41.78;100633.50;5067318;28;20025;-75
2021/09/17 04:16:43;;;;;;;8.13;3.22;;;;;;;26.53;41.96;100628.44;5071115;28;20371;-75
2021/09/17 04:19:09;;;;;;;7.72;1.90;;;;;;;26.45;42.30;100628.94;5072448;28;20036;-75
2021/09/17 04:21:34;;;;;;;9.20;2.88;;;;;;;26.26;42.99;100638.81;5072342;28;20025;-75
2021/09/17 04:24:00;;;;;;;6.15;2.83;;;;;;;26.30;42.85;100631.16;5072313;28;20032;-75
2021/09/17 04:26:25;;;;;;;7.40;2.00;;;;;;;26.60;42.02;100629.50;5072319;28;20039;-75
2021/09/17 04:28:51;;;;;;;6.90;2.65;;;;;;;26.66;41.75;100628.59;5072281;28;20056;-74
2021/09/17 04:31:17;;;;;;;6.90;2.38;;;;;;;26.65;41.95;100623.44;5072328;28;20062;-75
2021/09/17 04:33:43;;;;;;;11.07;2.50;;;;;;;26.53;42.22;100625.63;5072247;28;20111;-76
2021/09/17 04:36:08;;;;;;;6.70;2.28;;;;;;;26.53;42.44;100625.63;5072036;28;20045;-75
2021/09/17 04:38:34;;;;;;;5.97;2.00;;;;;;;26.61;42.31;100617.91;5072343;28;20028;-75
2021/09/17 04:41:00;;;;;;;8.95;3.03;;;;;;;26.37;42.90;100619.03;5072263;28;20020;-75
2021/09/17 04:43:27;;;;;;;6.63;2.30;;;;;;;26.69;42.28;100618.56;5072082;28;20037;-75
2021/09/17 04:45:53;;;;;;;11.18;2.80;;;;;;;26.73;42.23;100622.09;5072197;28;20020;-75
2021/09/17 04:48:19;;;;;;;7.10;2.15;;;;;;;26.58;42.83;100615.94;5072121;28;20029;-75
2021/09/17 04:50:45;;;;;;;5.65;1.50;;;;;;;26.67;42.36;100612.56;5072161;28;20035;-75
2021/09/17 04:53:11;;;;;;;5.30;1.80;;;;;;;26.55;42.85;100616.78;5072132;28;20031;-75
2021/09/17 04:55:37;;;;;;;9.00;2.45;;;;;;;26.65;42.51;100613.00;5072058;28;20028;-75
2021/09/17 04:58:07;;;;;;;5.13;1.90;;;;;;;26.65;42.55;100609.41;5072073;28;20032;-75
2021/09/17 05:00:34;;;;;;;10.35;3.15;;;;;;;26.72;42.70;100609.28;5072039;28;20451;-75
2021/09/17 05:03:00;;;;;;;8.18;2.53;;;;;;;26.48;43.31;100602.91;5071896;28;20115;-75
2021/09/17 05:05:26;;;;;;;8.55;2.13;;;;;;;26.55;43.13;100600.78;5070771;28;20135;-75
2021/09/17 05:07:51;;;;;;;6.80;2.17;;;;;;;26.61;42.79;100598.28;5071915;28;20036;-76
2021/09/17 05:10:17;;;;;;;4.20;1.73;;;;;;;26.62;42.98;100599.06;5071926;28;20070;-75
2021/09/17 05:12:42;;;;;;;4.95;1.98;;;;;;;26.71;42.72;100602.91;5071910;28;20039;-75
2021/09/17 05:15:09;;;;;;;6.15;1.98;;;;;;;26.56;43.21;100598.75;5071898;28;20035;-75
2021/09/17 05:17:34;;;;;;;9.10;2.00;;;;;;;26.61;43.13;100598.28;5071850;28;20025;-75
2021/09/17 05:20:00;;;;;;;7.65;2.25;;;;;;;26.65;42.73;100592.59;5071843;28;20515;-75
2021/09/17 05:22:26;;;;;;;9.07;1.70;;;;;;;26.55;43.13;100588.78;5074883;28;20028;-75
2021/09/17 05:24:52;;;;;;;4.70;1.60;;;;;;;26.73;42.77;100588.47;5075270;28;20492;-75
2021/09/17 05:27:18;;;;;;;3.25;1.30;;;;;;;26.66;42.93;100582.97;5075299;28;20389;-75
2021/09/17 05:29:44;;;;;;;10.52;2.00;;;;;;;26.69;42.96;100591.34;5075339;28;20035;-75
2021/09/17 05:32:11;;;;;;;10.02;1.80;;;;;;;26.67;42.89;100590.16;5075265;28;20029;-75
2021/09/17 05:34:37;;;;;;;4.10;1.92;;;;;;;26.60;43.25;100590.28;5074982;28;20028;-75
2021/09/17 05:37:04;;;;;;;7.18;2.70;;;;;;;26.67;43.12;100592.97;5075243;28;20028;-75
2021/09/17 05:39:30;;;;;;;7.18;2.38;;;;;;;26.53;43.59;100597.63;5075213;28;20056;-75
2021/09/17 05:41:55;;;;;;;10.30;3.67;;;;;;;26.63;43.54;100589.44;5075129;28;20113;-75
2021/09/17 05:44:21;;;;;;;14.82;3.35;;;;;;;26.20;44.88;100590.88;5075008;28;20036;-75
2021/09/17 05:46:47;;;;;;;8.60;1.85;;;;;;;26.49;43.90;100596.88;5073785;28;20408;-75
2021/09/17 05:49:12;;;;;;;8.60;2.42;;;;;;;26.52;43.84;100587.59;5074927;28;20044;-75
2021/09/17 05:51:38;;;;;;;10.40;2.67;;;;;;;26.53;44.02;100580.81;5074960;28;20071;-75
2021/09/17 05:54:04;;;;;;;8.23;2.30;;;;;;;26.43;44.14;100580.97;5074885;28;20056;-75
2021/09/17 05:56:30;;;;;;;6.95;2.05;;;;;;;26.41;44.25;100573.00;5074845;28;20032;-75
2021/09/17 05:58:56;;;;;;;8.45;2.58;;;;;;;26.43;44.27;100580.97;5074669;28;20029;-75
2021/09/17 06:01:21;;;;;;;4.85;1.88;;;;;;;26.57;43.79;100585.53;5074732;28;20108;-75
2021/09/17 06:03:47;;;;;;;5.78;1.88;;;;;;;26.39;44.38;100583.84;5074627;28;20039;-75
2021/09/17 06:06:13;;;;;;;4.15;1.75;;;;;;;26.41;44.40;100589.00;5074678;28;20453;-74
2021/09/17 06:08:38;;;;;;;7.38;2.30;;;;;;;26.31;44.86;100582.34;5074415;28;20111;-74
2021/09/17 06:11:04;;;;;;;4.82;1.77;;;;;;;26.44;44.54;100588.16;5074475;28;20020;-75
2021/09/17 06:13:30;;;;;;;6.25;2.45;;;;;;;26.94;43.35;100587.28;5074518;28;20033;-74
2021/09/17 06:15:56;;;;;;;6.57;1.88;;;;;;;26.51;44.67;100588.81;5074422;28;20032;-74
2021/09/17 06:18:21;;;;;;;8.80;2.03;;;;;;;26.55;44.57;100592.38;5072962;28;20055;-74
2021/09/17 06:20:47;;;;;;;7.13;2.28;;;;;;;26.76;44.06;100587.63;5073001;28;20044;-73
2021/09/17 06:23:13;;;;;;;6.65;2.30;;;;;;;26.56;44.85;100584.75;5074059;28;20044;-75
2021/09/17 06:25:39;;;;;;;6.88;2.60;;;;;;;26.78;44.16;100587.97;5074320;28;20031;-74
2021/09/17 06:28:05;;;;;;;9.38;2.25;;;;;;;26.98;43.64;100583.22;5074144;28;20099;-76
2021/09/17 06:30:32;;;;;;;4.30;1.95;;;;;;;26.89;44.04;100585.75;5074225;28;20358;-75
2021/09/17 06:32:58;;;;;;;11.57;2.35;;;;;;;26.68;44.73;100574.94;5072958;28;20036;-76
2021/09/17 06:35:24;;;;;;;14.43;3.05;;;;;;;26.49;45.11;100580.06;5072546;28;20072;-75
2021/09/17 06:37:55;;;;;;;5.45;1.30;;;;;;;26.56;45.19;100576.34;5073962;28;20036;-74
2021/09/17 06:40:23;;;;;;;5.25;1.48;;;;;;;26.94;44.11;100574.06;5072644;28;20028;-74
2021/09/17 06:42:49;;;;;;;4.63;1.52;;;;;;;26.51;45.32;100579.63;5073922;28;20029;-75
2021/09/17 06:45:16;;;;;;;6.88;1.80;;;;;;;26.28;45.84;100586.75;5072533;28;20040;-75
2021/09/17 06:47:58;;;;;;;5.40;2.25;;;;;;;26.37;45.95;100594.63;5073763;28;20395;-75
2021/09/17 06:50:26;;;;;;;10.38;3.08;;;;;;;26.41;45.82;100594.59;5073815;28;20048;-76
2021/09/17 06:52:53;;;;;;;16.58;3.45;;;;;;;26.48;45.85;100600.09;5073642;28;20037;-75
2021/09/17 06:55:30;;;;;;;10.18;2.05;;;;;;;26.43;46.50;100587.34;5072373;28;20036;-74
2021/09/17 06:58:01;;;;;;;13.25;3.35;;;;;;;26.54;46.12;100587.19;5072209;28;20082;-73
2021/09/17 07:00:29;;;;;;;10.73;2.35;;;;;;;26.51;46.03;100591.63;5064590;28;20037;-77
2021/09/17 07:02:55;;;;;;;12.82;3.53;;;;;;;26.62;45.63;100588.66;5052262;28;20028;-75
2021/09/17 07:05:23;;;;;;;14.88;3.53;;;;;;;26.70;45.53;100586.53;5053461;28;20028;-72
2021/09/17 07:07:49;;;;;;;12.38;2.67;;;;;;;26.49;46.28;100580.06;5053673;28;20060;-77
2021/09/17 07:10:18;;;;;;;8.50;2.20;;;;;;;26.30;47.01;100583.56;5053510;28;20058;-73
2021/09/17 07:12:45;;;;;;;8.37;2.40;;;;;;;26.64;46.01;100583.41;5053392;28;20029;-74
2021/09/17 07:15:12;;;;;;;11.27;3.08;;;;;;;26.47;46.90;100585.31;5053403;28;20609;-78
2021/09/17 07:17:38;;;;;;;13.57;3.65;;;;;;;26.40;46.98;100593.03;5053493;28;20032;-75
2021/09/17 07:20:05;;;;;;;14.93;3.25;;;;;;;26.37;47.34;100588.22;5052018;28;20470;-72
2021/09/17 07:22:30;;;;;;;9.80;3.03;;;;;;;26.53;46.89;100585.63;5051358;28;20653;-74
2021/09/17 07:24:57;;;;;;;5.35;2.05;;;;;;;26.50;46.58;100587.25;5053057;28;20075;-71
2021/09/17 07:27:23;;;;;;;8.98;2.65;;;;;;;26.38;47.25;100579.44;5052071;28;20359;-76
2021/09/17 07:29:49;;;;;;;9.93;2.50;;;;;;;26.42;47.54;100585.78;5053035;28;20466;-72
2021/09/17 07:32:14;;;;;;;8.75;2.15;;;;;;;26.41;47.18;100587.00;5052240;28;20152;-72
2021/09/17 07:34:40;;;;;;;4.75;2.03;;;;;;;26.46;47.13;100582.94;5050958;28;20068;-72
2021/09/17 07:37:06;;;;;;;8.90;2.00;;;;;;;26.31;47.63;100587.94;5051420;28;20104;-72
2021/09/17 07:39:31;;;;;;;10.48;2.30;;;;;;;26.51;47.37;100594.41;5051046;28;20021;-72
2021/09/17 07:41:57;;;;;;;9.52;2.33;;;;;;;26.54;47.30;100593.59;5049610;28;20029;-73
2021/09/17 07:44:23;;;;;;;8.75;2.33;;;;;;;26.31;48.03;100592.75;5050653;28;20033;-74
2021/09/17 07:46:48;;;;;;;6.38;1.75;;;;;;;26.47;47.64;100593.69;5050987;28;20064;-72
2021/09/17 07:49:14;;;;;;;10.50;2.45;;;;;;;26.58;47.08;100578.72;5052698;28;20028;-72
2021/09/17 07:51:40;;;;;;;7.32;2.63;;;;;;;26.49;47.57;100582.06;5052711;28;20079;-76
2021/09/17 07:54:06;;;;;;;4.32;1.55;;;;;;;26.54;47.69;100590.00;5052624;28;20522;-73
2021/09/17 07:56:31;;;;;;;5.75;2.15;;;;;;;26.56;47.39;100590.34;5052508;28;20033;-72
2021/09/17 07:58:57;;;;;;;9.82;2.65;;;;;;;26.52;47.82;100590.41;5052655;28;20025;-71
2021/09/17 08:01:23;;;;;;;15.63;2.40;;;;;;;26.69;47.20;100590.53;5051268;28;20025;-72
2021/09/17 08:03:48;;;;;;;5.47;1.67;;;;;;;26.61;47.34;100586.28;5051215;28;20118;-72
2021/09/17 08:06:15;;;;;;;5.30;1.58;;;;;;;26.59;47.48;100594.31;5052560;28;20086;-72
2021/09/17 08:08:41;;;;;;;5.38;1.35;;;;;;;26.31;48.65;100593.53;5051168;28;20025;-72
2021/09/17 08:11:07;;;;;;;7.53;2.00;;;;;;;26.52;47.86;100589.59;5052476;28;20063;-72
2021/09/17 08:13:32;;;;;;;8.02;2.45;;;;;;;26.55;48.10;100586.75;5052385;28;20600;-72
2021/09/17 08:15:58;;;;;;;5.20;1.48;;;;;;;26.68;47.67;100592.56;5052340;28;20033;-72
2021/09/17 08:18:25;;;;;;;2.88;1.20;;;;;;;26.68;47.71;100581.34;5052403;28;20052;-72
2021/09/17 08:20:57;;;;;;;6.72;1.60;;;;;;;26.68;47.78;100586.97;5052370;28;20473;-72
2021/09/17 08:23:23;;;;;;;8.68;2.78;;;;;;;26.83;47.47;100593.09;5052396;28;20119;-72
2021/09/17 08:25:50;;;;;;;5.13;1.42;;;;;;;26.80;47.60;100585.53;5052226;28;20123;-73
2021/09/17 08:28:17;;;;;;;5.13;1.83;;;;;;;26.79;47.45;100592.34;5052272;28;20033;-72
2021/09/17 08:30:43;;;;;;;9.10;2.15;;;;;;;26.95;47.13;100589.66;5052281;28;20025;-72
2021/09/17 08:33:09;;;;;;;9.02;1.90;;;;;;;26.87;47.42;100595.81;5052249;28;20078;-72
2021/09/17 08:35:35;;;;;;;5.75;1.75;;;;;;;26.72;47.68;100595.28;5051968;28;20101;-72
2021/09/17 08:38:00;;;;;;;4.28;1.50;;;;;;;26.98;46.94;100597.22;5052241;28;20068;-72
2021/09/17 08:40:30;;;;;;;8.13;1.80;;;;;;;26.85;47.43;100598.28;5052148;28;20025;-71
2021/09/17 08:42:59;;;;;;;9.48;2.50;;;;;;;26.90;47.33;100590.13;5052528;28;20025;-72
2021/09/17 08:45:29;;;;;;;14.10;2.40;;;;;;;26.71;47.99;100596.50;5052168;28;20029;-72
2021/09/17 08:47:57;;;;;;;5.85;2.22;;;;;;;26.77;47.73;100603.22;5052095;28;20078;-71
2021/09/17 08:50:23;;;;;;;8.20;1.98;;;;;;;26.80;47.75;100597.53;5052023;28;20025;-74
2021/09/17 08:52:49;;;;;;;5.13;1.70;;;;;;;26.75;47.82;100586.84;5052058;28;20499;-70
2021/09/17 08:55:14;;;;;;;11.65;2.97;;;;;;;26.93;47.21;100594.13;5052080;28;20036;-70
2021/09/17 08:57:45;;;;;;;7.13;1.80;;;;;;;26.79;47.77;100601.56;5055704;28;20025;-74
2021/09/17 09:00:25;;;;;;;8.45;2.42;;;;;;;26.62;48.43;100601.88;5055865;28;20021;-73
2021/09/17 09:02:54;;;;;;;5.70;1.80;;;;;;;26.73;48.08;100606.06;5054406;28;20025;-71
2021/09/17 09:05:28;;;;;;;8.07;1.88;;;;;;;26.88;47.75;100600.22;5055732;28;20066;-71
2021/09/17 09:07:54;;;;;;;8.63;2.15;;;;;;;26.88;47.86;100595.38;5054480;28;20028;-70
2021/09/17 09:10:20;;;;;;;6.53;1.60;;;;;;;26.99;47.50;100598.81;5055715;28;20032;-72
2021/09/17 09:12:52;;;;;;;7.13;1.70;;;;;;;26.92;48.26;100612.94;5054406;28;20497;-70
2021/09/17 09:15:25;;;;;;;9.98;2.60;;;;;;;26.88;48.14;100625.44;5055594;28;20049;-70
2021/09/17 09:17:53;;;;;;;6.90;2.72;;;;;;;26.98;47.79;100614.03;5055588;28;20127;-72
2021/09/17 09:20:36;;;;;;;9.82;1.83;;;;;;;26.85;48.29;100618.69;5055453;28;20052;-72
2021/09/17 09:23:28;;;;;;;8.07;1.40;;;;;;;26.73;48.50;100620.06;5053936;28;20036;-72
2021/09/17 09:26:08;;;;;;;6.03;1.63;;;;;;;26.81;48.50;100620.75;5053292;28;20032;-72
2021/09/17 09:28:35;;;;;;;;;;;;;;;26.93;48.20;100631.34;5054581;28;20029;-72
2021/09/17 09:31:05;;;;;;;13.35;2.15;;;;;;;27.15;47.88;100619.78;5055268;28;19912;-72
2021/09/17 09:33:32;;;;;;;;;;;;;;;27.09;47.68;100620.28;5055758;28;20032;-78
2021/09/17 09:36:07;;;;;;;11.40;2.35;;;;;;;27.37;46.98;100626.56;5054913;28;19917;-72
2021/09/17 09:38:54;;;;;;;11.95;3.10;;;;;;;27.25;47.52;100633.59;5055172;28;20057;-72
2021/09/17 09:41:27;;;;;;;11.63;2.50;;;;;;;27.38;47.13;100640.16;5055022;28;20095;-72
2021/09/17 09:43:57;;;;;;;6.13;1.50;;;;;;;27.23;47.72;100643.66;5055268;28;20387;-72
2021/09/17 09:46:43;;;;;;;6.38;1.80;;;;;;;27.27;47.56;100647.19;5055149;28;20036;-72
2021/09/17 09:49:10;;;;;;;6.55;2.15;;;;;;;27.00;48.21;100655.66;5054961;28;20033;-73
2021/09/17 09:52:12;;;;;;;7.22;2.25;;;;;;;27.27;47.26;100661.19;5054850;28;20029;-72
2021/09/17 09:54:37;;;;;;;8.05;2.10;;;;;;;27.24;47.61;100662.06;5032565;28;20125;-72
2021/09/17 09:57:05;;;;;;;6.95;1.45;;;;;;;27.16;47.54;100661.41;5050142;28;20120;-72
2021/09/17 09:59:34;;;;;;;8.70;3.00;;;;;;;27.20;47.87;100666.94;5054757;28;20450;-72
2021/09/17 10:02:02;;;;;;;9.70;2.22;;;;;;;27.36;47.23;100661.44;5053482;28;20474;-72
2021/09/17 10:04:30;;;;;;;9.20;2.22;;;;;;;27.33;47.34;100670.72;5057806;28;20078;-72
2021/09/17 10:07:10;;;;;;;7.15;1.80;;;;;;;27.41;47.66;100666.53;5064843;28;20112;-72
2021/09/17 10:09:40;;;;;;;4.63;1.48;;;;;;;27.44;47.61;100657.28;5073283;28;20024;-72
2021/09/17 10:12:09;;;;;;;5.95;2.10;;;;;;;27.51;47.52;100659.94;5071726;28;20028;-74
2021/09/17 10:14:35;;;;;;;10.93;2.75;;;;;;;27.72;46.92;100658.75;5074406;28;20465;-74
2021/09/17 10:17:06;;;;;;;7.13;2.10;;;;;;;27.79;46.93;100664.19;5073805;28;20425;-77
2021/09/17 10:19:32;;;;;;;5.43;1.58;;;;;;;27.81;47.08;100669.38;5073936;28;20020;-72
2021/09/17 10:21:59;;;;;;;3.60;1.40;;;;;;;27.93;46.79;100661.09;5073590;28;20031;-74
2021/09/17 10:24:25;;;;;;;2.92;1.75;;;;;;;28.07;46.62;100662.81;5073437;28;20035;-72
2021/09/17 10:26:59;;;;;;;5.03;1.88;;;;;;;27.99;46.70;100672.63;5073380;28;20036;-73
2021/09/17 10:29:40;;;;;;;2.28;0.98;;;;;;;27.98;46.58;100675.88;5072372;28;20016;-79
2021/09/17 10:32:27;;;;;;;2.78;1.02;;;;;;;27.68;47.25;100665.66;5071707;28;20029;-78
2021/09/17 10:35:09;;;;;;;4.68;0.95;;;;;;;27.57;47.35;100668.63;5072307;28;20052;-72
2021/09/17 10:37:59;;;;;;;2.03;1.00;;;;;;;27.76;46.32;100659.47;5071391;28;20481;-74
2021/09/17 10:40:41;;;;;;;3.13;1.00;;;;;;;27.80;46.51;100650.97;5071381;28;20060;-76
2021/09/17 10:43:10;;;;;;;3.55;1.00;;;;;;;27.93;45.84;100646.28;5070159;28;20441;-75
2021/09/17 10:45:56;;;;;;;6.07;1.25;;;;;;;28.00;46.03;100646.13;5073520;28;20024;-72
2021/09/17 10:48:42;;;;;;;3.67;0.80;;;;;;;28.25;45.66;100644.75;5062172;28;20033;-76
2021/09/17 10:51:09;;;;;;;4.10;1.70;;;;;;;28.25;45.89;100647.56;5055888;28;20029;-73
2021/09/17 10:53:44;;;;;;;3.15;1.40;;;;;;;28.26;45.82;100649.94;5073344;28;20142;-77
2021/09/17 10:56:16;;;;;;;2.30;1.23;;;;;;;28.36;45.53;100657.38;5071590;28;20364;-78
2021/09/17 10:58:42;;;;;;;3.95;1.20;;;;;;;28.54;45.38;100656.94;5072964;28;20024;-77
2021/09/17 11:01:12;;;;;;;3.53;1.20;;;;;;;28.35;46.05;100667.03;5073654;28;20058;-77
2021/09/17 11:03:40;;;;;;;1.60;1.10;;;;;;;28.34;45.74;100659.00;5072970;28;20040;-77
2021/09/17 11:06:18;;;;;;;5.95;1.48;;;;;;;28.29;45.58;100676.38;5072944;28;20486;-75
2021/09/17 11:08:50;;;;;;;6.53;2.03;;;;;;;28.39;45.71;100683.78;5070540;28;20029;-72
2021/09/17 11:11:48;;;;;;;7.28;2.40;;;;;;;28.28;45.70;100683.22;5072952;28;20055;-73
2021/09/17 11:14:21;;;;;;;5.82;1.90;;;;;;;28.39;45.20;100695.03;5063452;28;20044;-70
2021/09/17 11:16:48;;;;;;;2.88;2.00;;;;;;;28.04;45.93;100686.16;5070891;28;20382;-72
2021/09/17 11:19:15;;;;;;;5.75;2.38;;;;;;;28.24;45.54;100686.09;5072363;28;20066;-71
2021/09/17 11:21:47;;;;;;;4.18;2.13;;;;;;;28.18;45.58;100691.44;5072774;28;20027;-78
2021/09/17 11:24:21;;;;;;;4.20;2.45;;;;;;;28.31;45.27;100693.63;5072953;28;20119;-78
2021/09/17 11:26:51;;;;;;;4.25;2.20;;;;;;;28.43;45.41;100695.75;5071520;28;20081;-72